sensor_id;sensor_type;location;lat;lon;timestamp;temperature;humidity
76759;DHT22;65701;45.588;5.186;2023-03-24T06:37:21;13.80;66.12
76759;DHT22;65701;45.588;5.186;2023-03-24T06:39:47;13.79;65.99
76759;DHT22;65701;45.588;5.186;2023-03-24T06:42:14;13.83;65.88
76759;DHT22;65701;45.588;5.186;2023-03-24T06:44:40;13.79;65.79
76759;DHT22;65701;45.588;5.186;2023-03-24T06:47:06;13.83;65.66
76759;DHT22;65701;45.588;5.186;2023-03-24T06:49:31;13.80;65.61
76759;DHT22;65701;45.588;5.186;2023-03-24T06:51:59;13.89;65.57
76759;DHT22;65701;45.588;5.186;2023-03-24T06:54:26;13.87;65.36
76759;DHT22;65701;45.588;5.186;2023-03-24T06:56:51;13.87;65.21
76759;DHT22;65701;45.588;5.186;2023-03-24T06:59:17;13.95;65.18
76759;DHT22;65701;45.588;5.186;2023-03-24T07:01:42;13.90;65.18
76759;DHT22;65701;45.588;5.186;2023-03-24T07:04:08;13.93;65.06
76759;DHT22;65701;45.588;5.186;2023-03-24T07:06:33;13.85;65.00
76759;DHT22;65701;45.588;5.186;2023-03-24T07:08:59;13.93;64.94
76759;DHT22;65701;45.588;5.186;2023-03-24T07:11:25;14.04;64.90
76759;DHT22;65701;45.588;5.186;2023-03-24T07:13:51;14.03;64.81
76759;DHT22;65701;45.588;5.186;2023-03-24T07:16:16;14.00;64.75
76759;DHT22;65701;45.588;5.186;2023-03-24T07:18:42;14.00;64.77
76759;DHT22;65701;45.588;5.186;2023-03-24T07:23:50;14.09;64.79
76759;DHT22;65701;45.588;5.186;2023-03-24T07:26:16;14.02;64.74
76759;DHT22;65701;45.588;5.186;2023-03-24T07:28:41;14.06;64.63
76759;DHT22;65701;45.588;5.186;2023-03-24T07:31:07;14.02;64.57
76759;DHT22;65701;45.588;5.186;2023-03-24T07:33:35;14.04;64.51
76759;DHT22;65701;45.588;5.186;2023-03-24T07:36:02;14.12;64.44
76759;DHT22;65701;45.588;5.186;2023-03-24T07:38:27;14.09;64.30
76759;DHT22;65701;45.588;5.186;2023-03-24T07:40:52;14.06;64.14
76759;DHT22;65701;45.588;5.186;2023-03-24T07:43:18;14.07;64.04
76759;DHT22;65701;45.588;5.186;2023-03-24T07:45:44;14.02;64.01
76759;DHT22;65701;45.588;5.186;2023-03-24T07:48:11;14.07;63.98
76759;DHT22;65701;45.588;5.186;2023-03-24T07:50:36;14.10;64.04
76759;DHT22;65701;45.588;5.186;2023-03-24T07:53:02;14.07;64.02
76759;DHT22;65701;45.588;5.186;2023-03-24T07:55:27;14.14;64.03
76759;DHT22;65701;45.588;5.186;2023-03-24T07:57:53;14.09;64.12
76759;DHT22;65701;45.588;5.186;2023-03-24T08:00:19;14.09;64.13
76759;DHT22;65701;45.588;5.186;2023-03-24T08:02:50;14.07;64.18
76759;DHT22;65701;45.588;5.186;2023-03-24T08:05:18;14.13;64.22
76759;DHT22;65701;45.588;5.186;2023-03-24T08:07:45;14.20;64.14
76759;DHT22;65701;45.588;5.186;2023-03-24T08:10:22;14.20;64.15
76759;DHT22;65701;45.588;5.186;2023-03-24T08:12:49;14.18;64.09
76759;DHT22;65701;45.588;5.186;2023-03-24T08:15:14;14.17;64.05
76759;DHT22;65701;45.588;5.186;2023-03-24T08:17:40;14.25;64.11
76759;DHT22;65701;45.588;5.186;2023-03-24T08:20:07;14.21;63.99
76759;DHT22;65701;45.588;5.186;2023-03-24T08:22:36;14.24;63.92
76759;DHT22;65701;45.588;5.186;2023-03-24T08:25:04;14.27;63.95
76759;DHT22;65701;45.588;5.186;2023-03-24T08:27:30;14.28;63.85
76759;DHT22;65701;45.588;5.186;2023-03-24T08:29:55;14.25;63.77
76759;DHT22;65701;45.588;5.186;2023-03-24T08:32:21;14.35;63.77
76759;DHT22;65701;45.588;5.186;2023-03-24T08:34:46;14.40;63.79
76759;DHT22;65701;45.588;5.186;2023-03-24T08:37:12;14.41;63.68
76759;DHT22;65701;45.588;5.186;2023-03-24T08:39:37;14.40;63.64
76759;DHT22;65701;45.588;5.186;2023-03-24T08:42:03;14.34;63.57
76759;DHT22;65701;45.588;5.186;2023-03-24T08:44:28;14.34;63.48
76759;DHT22;65701;45.588;5.186;2023-03-24T08:46:54;14.35;63.42
76759;DHT22;65701;45.588;5.186;2023-03-24T08:49:20;14.37;63.51
76759;DHT22;65701;45.588;5.186;2023-03-24T08:51:45;14.35;63.43
76759;DHT22;65701;45.588;5.186;2023-03-24T08:54:11;14.40;63.49
76759;DHT22;65701;45.588;5.186;2023-03-24T08:56:38;14.41;63.35
76759;DHT22;65701;45.588;5.186;2023-03-24T08:59:04;14.44;63.31
76759;DHT22;65701;45.588;5.186;2023-03-24T09:01:31;14.44;63.21
76759;DHT22;65701;45.588;5.186;2023-03-24T09:03:58;14.45;63.35
76759;DHT22;65701;45.588;5.186;2023-03-24T09:06:24;14.55;63.44
76759;DHT22;65701;45.588;5.186;2023-03-24T09:08:51;14.51;63.68
76759;DHT22;65701;45.588;5.186;2023-03-24T09:11:20;14.58;63.63
76759;DHT22;65701;45.588;5.186;2023-03-24T09:13:47;14.62;63.57
76759;DHT22;65701;45.588;5.186;2023-03-24T09:16:12;14.71;63.49
76759;DHT22;65701;45.588;5.186;2023-03-24T09:18:38;14.72;63.53
76759;DHT22;65701;45.588;5.186;2023-03-24T09:21:05;14.76;63.49
76759;DHT22;65701;45.588;5.186;2023-03-24T09:23:30;14.78;63.42
76759;DHT22;65701;45.588;5.186;2023-03-24T09:25:56;14.82;63.54
76759;DHT22;65701;45.588;5.186;2023-03-24T09:28:22;14.89;63.57
76759;DHT22;65701;45.588;5.186;2023-03-24T09:30:48;14.92;63.58
76759;DHT22;65701;45.588;5.186;2023-03-24T09:33:13;14.97;63.61
76759;DHT22;65701;45.588;5.186;2023-03-24T09:35:39;14.97;63.73
76759;DHT22;65701;45.588;5.186;2023-03-24T09:38:05;15.04;63.83
76759;DHT22;65701;45.588;5.186;2023-03-24T09:40:35;15.06;63.90
76759;DHT22;65701;45.588;5.186;2023-03-24T09:45:31;15.19;63.79
76759;DHT22;65701;45.588;5.186;2023-03-24T09:48:01;15.26;63.69
76759;DHT22;65701;45.588;5.186;2023-03-24T09:56:32;15.41;63.03
76759;DHT22;65701;45.588;5.186;2023-03-24T09:59:05;15.30;62.76
76759;DHT22;65701;45.588;5.186;2023-03-24T10:01:32;15.34;62.64
76759;DHT22;65701;45.588;5.186;2023-03-24T10:03:59;15.40;62.64
76759;DHT22;65701;45.588;5.186;2023-03-24T10:06:37;15.44;62.67
76759;DHT22;65701;45.588;5.186;2023-03-24T10:14:18;15.47;62.23
76759;DHT22;65701;45.588;5.186;2023-03-24T10:16:56;15.48;61.98
76759;DHT22;65701;45.588;5.186;2023-03-24T10:22:12;15.52;61.57
76759;DHT22;65701;45.588;5.186;2023-03-24T10:24:47;15.54;61.44
76759;DHT22;65701;45.588;5.186;2023-03-24T10:27:36;15.50;61.32
76759;DHT22;65701;45.588;5.186;2023-03-24T10:32:38;15.65;61.09
76759;DHT22;65701;45.588;5.186;2023-03-24T10:35:06;15.69;61.11
76759;DHT22;65701;45.588;5.186;2023-03-24T10:37:38;15.77;61.10
76759;DHT22;65701;45.588;5.186;2023-03-24T10:40:16;15.92;60.94
76759;DHT22;65701;45.588;5.186;2023-03-24T10:42:44;15.95;60.97
76759;DHT22;65701;45.588;5.186;2023-03-24T10:45:12;16.02;60.66
76759;DHT22;65701;45.588;5.186;2023-03-24T10:47:39;15.97;60.56
76759;DHT22;65701;45.588;5.186;2023-03-24T10:50:08;15.99;60.62
76759;DHT22;65701;45.588;5.186;2023-03-24T10:52:39;16.03;60.39
76759;DHT22;65701;45.588;5.186;2023-03-24T10:55:06;15.93;60.33
76759;DHT22;65701;45.588;5.186;2023-03-24T10:57:32;16.03;60.38
76759;DHT22;65701;45.588;5.186;2023-03-24T11:00:07;16.03;60.33
76759;DHT22;65701;45.588;5.186;2023-03-24T11:02:42;16.12;60.36
76759;DHT22;65701;45.588;5.186;2023-03-24T11:07:38;16.27;60.75
76759;DHT22;65701;45.588;5.186;2023-03-24T11:12:32;16.43;60.95
76759;DHT22;65701;45.588;5.186;2023-03-24T11:15:16;16.61;60.78
76759;DHT22;65701;45.588;5.186;2023-03-24T11:17:43;16.69;60.74
76759;DHT22;65701;45.588;5.186;2023-03-24T11:20:24;16.78;60.75
76759;DHT22;65701;45.588;5.186;2023-03-24T11:23:05;16.90;60.79
76759;DHT22;65701;45.588;5.186;2023-03-24T11:25:39;16.95;60.36
76759;DHT22;65701;45.588;5.186;2023-03-24T11:28:14;17.00;60.12
76759;DHT22;65701;45.588;5.186;2023-03-24T11:30:49;16.97;60.25
76759;DHT22;65701;45.588;5.186;2023-03-24T11:33:27;16.97;60.16
76759;DHT22;65701;45.588;5.186;2023-03-24T11:35:57;16.99;59.89
76759;DHT22;65701;45.588;5.186;2023-03-24T11:38:29;16.97;59.84
76759;DHT22;65701;45.588;5.186;2023-03-24T11:40:57;16.83;59.68
76759;DHT22;65701;45.588;5.186;2023-03-24T11:43:24;16.71;59.55
76759;DHT22;65701;45.588;5.186;2023-03-24T11:46:11;16.69;59.39
76759;DHT22;65701;45.588;5.186;2023-03-24T11:48:46;16.71;59.34
76759;DHT22;65701;45.588;5.186;2023-03-24T11:51:36;16.71;59.62
76759;DHT22;65701;45.588;5.186;2023-03-24T11:54:08;16.69;59.78
76759;DHT22;65701;45.588;5.186;2023-03-24T11:56:43;16.72;59.79
76759;DHT22;65701;45.588;5.186;2023-03-24T12:10:59;16.58;60.22
76759;DHT22;65701;45.588;5.186;2023-03-24T12:13:40;16.47;60.08
76759;DHT22;65701;45.588;5.186;2023-03-24T12:26:58;16.54;60.53
76759;DHT22;65701;45.588;5.186;2023-03-24T12:30:01;16.65;60.77
76759;DHT22;65701;45.588;5.186;2023-03-24T12:32:47;16.68;60.70
76759;DHT22;65701;45.588;5.186;2023-03-24T12:35:23;16.83;60.54
76759;DHT22;65701;45.588;5.186;2023-03-24T12:38:08;16.89;60.44
76759;DHT22;65701;45.588;5.186;2023-03-24T12:40:58;16.93;60.38
76759;DHT22;65701;45.588;5.186;2023-03-24T12:49:42;17.13;59.91
76759;DHT22;65701;45.588;5.186;2023-03-24T13:04:26;17.20;58.97
76759;DHT22;65701;45.588;5.186;2023-03-24T13:07:11;17.06;58.84
76759;DHT22;65701;45.588;5.186;2023-03-24T13:12:24;16.97;60.50
76759;DHT22;65701;45.588;5.186;2023-03-24T13:14:56;16.96;61.00
76759;DHT22;65701;45.588;5.186;2023-03-24T13:20:27;16.82;62.27
76759;DHT22;65701;45.588;5.186;2023-03-24T13:22:55;16.71;62.81
76759;DHT22;65701;45.588;5.186;2023-03-24T13:25:44;16.68;62.92
76759;DHT22;65701;45.588;5.186;2023-03-24T13:28:24;16.54;62.90
76759;DHT22;65701;45.588;5.186;2023-03-24T13:30:52;16.64;62.65
76759;DHT22;65701;45.588;5.186;2023-03-24T13:33:26;16.67;62.58
76759;DHT22;65701;45.588;5.186;2023-03-24T13:36:15;16.78;62.80
76759;DHT22;65701;45.588;5.186;2023-03-24T13:38:53;16.86;62.85
76759;DHT22;65701;45.588;5.186;2023-03-24T13:41:22;16.85;62.93
76759;DHT22;65701;45.588;5.186;2023-03-24T13:43:58;16.89;62.34
76759;DHT22;65701;45.588;5.186;2023-03-24T13:46:24;16.85;62.03
76759;DHT22;65701;45.588;5.186;2023-03-24T13:48:53;16.85;61.92
76759;DHT22;65701;45.588;5.186;2023-03-24T13:51:29;16.92;61.87
76759;DHT22;65701;45.588;5.186;2023-03-24T13:57:16;16.80;61.59
76759;DHT22;65701;45.588;5.186;2023-03-24T14:00:20;16.86;61.79
76759;DHT22;65701;45.588;5.186;2023-03-24T14:02:52;16.75;61.56
76759;DHT22;65701;45.588;5.186;2023-03-24T14:08:10;16.61;62.91
76759;DHT22;65701;45.588;5.186;2023-03-24T14:10:47;16.57;63.29
76759;DHT22;65701;45.588;5.186;2023-03-24T14:15:56;16.41;65.17
76759;DHT22;65701;45.588;5.186;2023-03-24T14:23:47;16.33;66.93
76759;DHT22;65701;45.588;5.186;2023-03-24T14:34:06;16.16;68.48
76759;DHT22;65701;45.588;5.186;2023-03-24T14:36:35;16.12;68.46
76759;DHT22;65701;45.588;5.186;2023-03-24T14:41:47;15.99;69.93
76759;DHT22;65701;45.588;5.186;2023-03-24T14:44:54;15.93;70.43
76759;DHT22;65701;45.588;5.186;2023-03-24T14:47:22;15.78;71.17
76759;DHT22;65701;45.588;5.186;2023-03-24T14:49:54;15.62;71.37
76759;DHT22;65701;45.588;5.186;2023-03-24T14:52:26;15.40;71.98
76759;DHT22;65701;45.588;5.186;2023-03-24T14:54:58;15.17;72.55
76759;DHT22;65701;45.588;5.186;2023-03-24T14:57:34;14.99;73.18
76759;DHT22;65701;45.588;5.186;2023-03-24T15:02:55;14.57;74.62
76759;DHT22;65701;45.588;5.186;2023-03-24T15:05:33;14.48;74.95
76759;DHT22;65701;45.588;5.186;2023-03-24T15:08:19;14.37;75.04
76759;DHT22;65701;45.588;5.186;2023-03-24T15:15:52;14.20;74.89
76759;DHT22;65701;45.588;5.186;2023-03-24T15:18:18;14.21;75.71
76759;DHT22;65701;45.588;5.186;2023-03-24T15:20:47;14.21;75.92
76759;DHT22;65701;45.588;5.186;2023-03-24T15:23:24;14.20;75.48
76759;DHT22;65701;45.588;5.186;2023-03-24T15:25:51;14.18;75.34
76759;DHT22;65701;45.588;5.186;2023-03-24T15:28:24;14.23;75.58
76759;DHT22;65701;45.588;5.186;2023-03-24T15:30:51;14.23;75.67
76759;DHT22;65701;45.588;5.186;2023-03-24T15:33:18;14.21;75.50
76759;DHT22;65701;45.588;5.186;2023-03-24T15:35:46;14.20;76.42
76759;DHT22;65701;45.588;5.186;2023-03-24T15:38:26;14.20;76.32
76759;DHT22;65701;45.588;5.186;2023-03-24T15:41:12;14.13;76.22
76759;DHT22;65701;45.588;5.186;2023-03-24T15:43:45;14.12;75.07
76759;DHT22;65701;45.588;5.186;2023-03-24T15:46:26;13.93;77.45
76759;DHT22;65701;45.588;5.186;2023-03-24T15:48:58;13.85;78.36
76759;DHT22;65701;45.588;5.186;2023-03-24T15:52:03;13.86;78.42
76759;DHT22;65701;45.588;5.186;2023-03-24T15:54:43;13.78;78.50
76759;DHT22;65701;45.588;5.186;2023-03-24T15:57:15;13.85;78.09
76759;DHT22;65701;45.588;5.186;2023-03-24T16:02:30;13.73;80.14
76759;DHT22;65701;45.588;5.186;2023-03-24T16:05:02;13.80;79.59
76759;DHT22;65701;45.588;5.186;2023-03-24T16:07:32;13.75;79.97
76759;DHT22;65701;45.588;5.186;2023-03-24T16:10:04;13.73;80.11
76759;DHT22;65701;45.588;5.186;2023-03-24T16:12:32;13.79;79.94
76759;DHT22;65701;45.588;5.186;2023-03-24T16:14:58;13.85;79.04
76759;DHT22;65701;45.588;5.186;2023-03-24T16:17:24;13.89;78.85
76759;DHT22;65701;45.588;5.186;2023-03-24T16:19:50;13.96;78.60
76759;DHT22;65701;45.588;5.186;2023-03-24T16:22:15;14.03;77.78
76759;DHT22;65701;45.588;5.186;2023-03-24T16:24:41;14.12;77.24
76759;DHT22;65701;45.588;5.186;2023-03-24T16:27:10;14.17;76.97
76759;DHT22;65701;45.588;5.186;2023-03-24T16:29:36;14.25;76.71
76759;DHT22;65701;45.588;5.186;2023-03-24T16:32:01;14.30;76.25
76759;DHT22;65701;45.588;5.186;2023-03-24T16:34:27;14.34;76.14
76759;DHT22;65701;45.588;5.186;2023-03-24T16:36:53;14.37;76.06
76759;DHT22;65701;45.588;5.186;2023-03-24T16:39:22;14.41;76.09
76759;DHT22;65701;45.588;5.186;2023-03-24T16:41:48;14.42;75.94
76759;DHT22;65701;45.588;5.186;2023-03-24T16:44:16;14.46;75.59
76759;DHT22;65701;45.588;5.186;2023-03-24T16:46:44;14.48;75.36
76759;DHT22;65701;45.588;5.186;2023-03-24T16:49:13;14.51;75.43
76759;DHT22;65701;45.588;5.186;2023-03-24T16:51:40;14.51;75.33
76759;DHT22;65701;45.588;5.186;2023-03-24T16:54:07;14.52;75.24
76759;DHT22;65701;45.588;5.186;2023-03-24T16:56:34;14.55;74.96
76759;DHT22;65701;45.588;5.186;2023-03-24T16:59:00;14.55;75.36
76759;DHT22;65701;45.588;5.186;2023-03-24T17:01:44;14.54;75.42
76759;DHT22;65701;45.588;5.186;2023-03-24T17:06:43;14.52;75.32
76759;DHT22;65701;45.588;5.186;2023-03-24T17:09:09;14.52;75.40
76759;DHT22;65701;45.588;5.186;2023-03-24T17:11:49;14.54;75.40
76759;DHT22;65701;45.588;5.186;2023-03-24T17:14:15;14.51;75.31
76759;DHT22;65701;45.588;5.186;2023-03-24T17:16:42;14.48;74.96
76759;DHT22;65701;45.588;5.186;2023-03-24T17:19:15;14.48;74.96
76759;DHT22;65701;45.588;5.186;2023-03-24T17:21:48;14.42;74.98
76759;DHT22;65701;45.588;5.186;2023-03-24T17:24:14;14.44;74.86
76759;DHT22;65701;45.588;5.186;2023-03-24T17:26:41;14.41;74.75
76759;DHT22;65701;45.588;5.186;2023-03-24T17:29:10;14.40;74.98
76759;DHT22;65701;45.588;5.186;2023-03-24T17:31:35;14.38;74.86
76759;DHT22;65701;45.588;5.186;2023-03-24T17:34:01;14.37;75.03
76759;DHT22;65701;45.588;5.186;2023-03-24T17:36:27;14.35;74.95
76759;DHT22;65701;45.588;5.186;2023-03-24T17:38:52;14.34;74.95
76759;DHT22;65701;45.588;5.186;2023-03-24T17:41:33;14.34;74.96
76759;DHT22;65701;45.588;5.186;2023-03-24T17:44:26;14.30;75.00
76759;DHT22;65701;45.588;5.186;2023-03-24T17:50:14;14.30;74.83
76759;DHT22;65701;45.588;5.186;2023-03-24T17:52:47;14.31;74.71
76759;DHT22;65701;45.588;5.186;2023-03-24T17:55:14;14.24;74.49
76759;DHT22;65701;45.588;5.186;2023-03-24T17:57:41;14.21;74.87
76759;DHT22;65701;45.588;5.186;2023-03-24T18:00:10;14.16;75.07
76759;DHT22;65701;45.588;5.186;2023-03-24T18:02:41;14.13;74.85
76759;DHT22;65701;45.588;5.186;2023-03-24T18:05:34;14.12;74.89
76759;DHT22;65701;45.588;5.186;2023-03-24T18:08:27;14.09;74.79
76759;DHT22;65701;45.588;5.186;2023-03-24T18:14:42;14.00;74.68
76759;DHT22;65701;45.588;5.186;2023-03-24T18:23:36;13.82;74.15
76759;DHT22;65701;45.588;5.186;2023-03-24T18:29:50;13.66;74.32
76759;DHT22;65701;45.588;5.186;2023-03-24T18:38:48;13.52;74.65
76759;DHT22;65701;45.588;5.186;2023-03-24T18:41:35;13.51;74.71
76759;DHT22;65701;45.588;5.186;2023-03-24T18:48:05;13.40;74.63
76759;DHT22;65701;45.588;5.186;2023-03-24T18:50:31;13.35;74.62
76759;DHT22;65701;45.588;5.186;2023-03-24T18:56:27;13.24;74.50
76759;DHT22;65701;45.588;5.186;2023-03-24T18:58:52;13.23;74.62
76759;DHT22;65701;45.588;5.186;2023-03-24T19:01:19;13.17;74.44
76759;DHT22;65701;45.588;5.186;2023-03-24T19:03:49;13.14;74.69
76759;DHT22;65701;45.588;5.186;2023-03-24T19:06:15;13.08;74.94
76759;DHT22;65701;45.588;5.186;2023-03-24T19:08:43;13.07;75.32
76759;DHT22;65701;45.588;5.186;2023-03-24T19:11:13;13.06;75.44
76759;DHT22;65701;45.588;5.186;2023-03-24T19:13:41;13.02;75.32
76759;DHT22;65701;45.588;5.186;2023-03-24T19:22:56;12.99;75.54
76759;DHT22;65701;45.588;5.186;2023-03-24T19:25:23;13.02;75.63
76759;DHT22;65701;45.588;5.186;2023-03-24T19:27:49;13.00;75.52
76759;DHT22;65701;45.588;5.186;2023-03-24T19:30:15;13.02;75.41
76759;DHT22;65701;45.588;5.186;2023-03-24T19:32:43;12.99;75.54
76759;DHT22;65701;45.588;5.186;2023-03-24T19:35:09;12.99;75.32
76759;DHT22;65701;45.588;5.186;2023-03-24T19:37:35;12.93;75.49
76759;DHT22;65701;45.588;5.186;2023-03-24T19:40:03;12.89;75.38
76759;DHT22;65701;45.588;5.186;2023-03-24T19:42:46;12.82;75.11
76759;DHT22;65701;45.588;5.186;2023-03-24T19:45:14;12.76;74.95
76759;DHT22;65701;45.588;5.186;2023-03-24T19:47:40;12.72;74.81
76759;DHT22;65701;45.588;5.186;2023-03-24T19:50:08;12.68;74.76
76759;DHT22;65701;45.588;5.186;2023-03-24T19:52:33;12.63;74.80
76759;DHT22;65701;45.588;5.186;2023-03-24T19:55:00;12.59;74.79
76759;DHT22;65701;45.588;5.186;2023-03-24T19:57:25;12.53;74.67
76759;DHT22;65701;45.588;5.186;2023-03-24T19:59:55;12.45;74.75
76759;DHT22;65701;45.588;5.186;2023-03-24T20:02:21;12.40;75.01
76759;DHT22;65701;45.588;5.186;2023-03-24T20:04:46;12.34;75.52
76759;DHT22;65701;45.588;5.186;2023-03-24T20:07:12;12.31;75.35
76759;DHT22;65701;45.588;5.186;2023-03-24T20:09:37;12.28;75.21
76759;DHT22;65701;45.588;5.186;2023-03-24T20:12:04;12.28;75.41
76759;DHT22;65701;45.588;5.186;2023-03-24T20:14:29;12.28;75.36
76759;DHT22;65701;45.588;5.186;2023-03-24T20:16:56;12.27;74.99
76759;DHT22;65701;45.588;5.186;2023-03-24T20:19:22;12.23;75.00
76759;DHT22;65701;45.588;5.186;2023-03-24T20:21:47;12.18;75.02
76759;DHT22;65701;45.588;5.186;2023-03-24T20:24:13;12.14;74.94
76759;DHT22;65701;45.588;5.186;2023-03-24T20:26:39;12.07;74.88
76759;DHT22;65701;45.588;5.186;2023-03-24T20:29:05;12.04;74.74
76759;DHT22;65701;45.588;5.186;2023-03-24T20:31:32;11.96;74.54
76759;DHT22;65701;45.588;5.186;2023-03-24T20:33:57;11.87;74.43
76759;DHT22;65701;45.588;5.186;2023-03-24T20:36:23;11.80;74.21
76759;DHT22;65701;45.588;5.186;2023-03-24T20:38:49;11.72;74.11
76759;DHT22;65701;45.588;5.186;2023-03-24T20:41:14;11.65;74.19
76759;DHT22;65701;45.588;5.186;2023-03-24T20:43:42;11.57;74.24
76759;DHT22;65701;45.588;5.186;2023-03-24T20:46:09;11.54;74.39
76759;DHT22;65701;45.588;5.186;2023-03-24T20:48:35;11.48;74.65
76759;DHT22;65701;45.588;5.186;2023-03-24T20:51:02;11.43;74.55
76759;DHT22;65701;45.588;5.186;2023-03-24T20:53:28;11.35;74.43
76759;DHT22;65701;45.588;5.186;2023-03-24T20:56:05;11.30;74.19
76759;DHT22;65701;45.588;5.186;2023-03-24T20:58:32;11.25;74.04
76759;DHT22;65701;45.588;5.186;2023-03-24T21:00:59;11.20;73.98
76759;DHT22;65701;45.588;5.186;2023-03-24T21:03:25;11.13;74.08
76759;DHT22;65701;45.588;5.186;2023-03-24T21:05:51;11.11;74.15
76759;DHT22;65701;45.588;5.186;2023-03-24T21:08:17;11.07;74.10
76759;DHT22;65701;45.588;5.186;2023-03-24T21:10:43;11.06;74.30
76759;DHT22;65701;45.588;5.186;2023-03-24T21:13:08;11.04;74.35
76759;DHT22;65701;45.588;5.186;2023-03-24T21:15:34;11.01;74.47
76759;DHT22;65701;45.588;5.186;2023-03-24T21:18:05;10.96;74.86
76759;DHT22;65701;45.588;5.186;2023-03-24T21:20:31;10.93;75.32
76759;DHT22;65701;45.588;5.186;2023-03-24T21:22:56;10.93;75.41
